Grandview, Indiana
Current Conditions -  °F | °C
As of 10:56 AM on Friday 28 Nov 2014 (Local Time) from KOWB Reporting Station
Clear Clear  
Wind Chill: 27°   Ceiling: Unl
Heat Index: 36°   Visibility: 10mi
Dew Point: 26°   Wind: 14mph
Humidity: 67%   Direction: 170°S
Pressure: 30.35"   Gusts: NA
Location:  37.93°N, 86.98°W
Report Text: KOWB 281656Z 17012KT 10SM CLR 02/M03 A3035 RMK AO2 T00221033 PRESFR SLP281
Loading
Personal Weather Stations






























Interactive Weather Map New forecast layout! Learn more

10-Day Weather Forecast

Advertisements
Track Severe Weather on mobile